Govan, Canada
Current Conditions -  °F | °C
As of 3:00 PM on Saturday 22 Nov 2014 (Local Time) from CYQR Reporting Station
Broken Clouds Broken Clouds  
Wind Chill: 26°   Ceiling: 4800
Heat Index: 36°   Visibility: 15mi
Dew Point: 36°   Wind: 15mph
Humidity: 100%   Direction: 130°SE
Pressure: 29.13"   Gusts: NA
Location:  51.32°N, 105°W
Report Text: CYQR 222100Z 13013KT 15SM BKN048 BKN120 02/02 A2913 RMK SC6ACC1 PRESRR SLP890
Loading
Personal Weather Stations






























Interactive Weather Map New forecast layout! Learn more

10-Day Weather Forecast

Advertisements
Track Severe Weather on mobile